Chevak, Alaska
Current Conditions -  °F | °C
As of 4:57 PM on Sunday 25 Jan 2015 (Local Time) from PAVA Reporting Station
Clear Clear  
Wind Chill: -23°   Ceiling: Unl
Heat Index: -8°   Visibility: 10mi
Dew Point: -13°   Wind: 7mph
Humidity: 79%   Direction: 40°NE
Pressure: 30.18"   Gusts: NA
Location:  61.53°N, 165.59°W
Report Text: PAVA 260157Z AUTO 04006KT 10SM CLR M22/M25 A3018 RMK AO2 SLPNO T12221250 FZRANO
Loading
Personal Weather Stations






























Interactive Weather Map New forecast layout! Learn more

10-Day Weather Forecast

Advertisements
Track Severe Weather on mobile